sensor_id;sensor_type;location;lat;lon;timestamp;P1;durP1;ratioP1;P2;durP2;ratioP2
48743;SDS011;34538;48.836;9.174;2024-01-30T00:00:37;12.27;;;6.15;;
48743;SDS011;34538;48.836;9.174;2024-01-30T00:03:04;11.57;;;6.72;;
48743;SDS011;34538;48.836;9.174;2024-01-30T00:05:31;12.63;;;6.47;;
48743;SDS011;34538;48.836;9.174;2024-01-30T00:07:59;12.70;;;7.28;;
48743;SDS011;34538;48.836;9.174;2024-01-30T00:10:26;13.68;;;7.32;;
48743;SDS011;34538;48.836;9.174;2024-01-30T00:12:53;13.35;;;7.53;;
48743;SDS011;34538;48.836;9.174;2024-01-30T00:15:20;13.98;;;7.25;;
48743;SDS011;34538;48.836;9.174;2024-01-30T00:17:47;12.00;;;6.32;;
48743;SDS011;34538;48.836;9.174;2024-01-30T00:20:14;11.75;;;6.00;;
48743;SDS011;34538;48.836;9.174;2024-01-30T00:22:40;12.52;;;6.30;;
48743;SDS011;34538;48.836;9.174;2024-01-30T00:25:09;11.57;;;6.38;;
48743;SDS011;34538;48.836;9.174;2024-01-30T00:27:36;14.95;;;7.00;;
48743;SDS011;34538;48.836;9.174;2024-01-30T00:30:03;16.20;;;7.28;;
48743;SDS011;34538;48.836;9.174;2024-01-30T00:32:30;15.25;;;7.25;;
48743;SDS011;34538;48.836;9.174;2024-01-30T00:34:57;12.27;;;7.20;;
48743;SDS011;34538;48.836;9.174;2024-01-30T00:37:24;12.45;;;6.97;;
48743;SDS011;34538;48.836;9.174;2024-01-30T00:39:51;14.02;;;6.70;;
48743;SDS011;34538;48.836;9.174;2024-01-30T00:42:19;15.27;;;6.70;;
48743;SDS011;34538;48.836;9.174;2024-01-30T00:44:46;11.65;;;6.30;;
48743;SDS011;34538;48.836;9.174;2024-01-30T00:47:13;11.68;;;6.53;;
48743;SDS011;34538;48.836;9.174;2024-01-30T00:49:40;12.55;;;7.00;;
48743;SDS011;34538;48.836;9.174;2024-01-30T00:52:07;11.55;;;6.30;;
48743;SDS011;34538;48.836;9.174;2024-01-30T00:54:34;15.95;;;6.75;;
48743;SDS011;34538;48.836;9.174;2024-01-30T00:57:01;11.00;;;6.47;;
48743;SDS011;34538;48.836;9.174;2024-01-30T00:59:29;11.57;;;6.45;;
48743;SDS011;34538;48.836;9.174;2024-01-30T01:01:56;14.32;;;6.57;;
48743;SDS011;34538;48.836;9.174;2024-01-30T01:04:23;12.70;;;6.43;;
48743;SDS011;34538;48.836;9.174;2024-01-30T01:06:50;11.48;;;6.43;;
48743;SDS011;34538;48.836;9.174;2024-01-30T01:09:16;10.75;;;6.07;;
48743;SDS011;34538;48.836;9.174;2024-01-30T01:11:43;9.60;;;6.20;;
48743;SDS011;34538;48.836;9.174;2024-01-30T01:14:10;9.95;;;6.32;;
48743;SDS011;34538;48.836;9.174;2024-01-30T01:16:38;13.32;;;6.75;;
48743;SDS011;34538;48.836;9.174;2024-01-30T01:19:05;12.18;;;6.28;;
48743;SDS011;34538;48.836;9.174;2024-01-30T01:21:32;12.00;;;6.07;;
48743;SDS011;34538;48.836;9.174;2024-01-30T01:23:59;13.90;;;6.57;;
48743;SDS011;34538;48.836;9.174;2024-01-30T01:26:26;10.70;;;6.68;;
48743;SDS011;34538;48.836;9.174;2024-01-30T01:28:53;15.45;;;6.60;;
48743;SDS011;34538;48.836;9.174;2024-01-30T01:31:20;11.50;;;6.05;;
48743;SDS011;34538;48.836;9.174;2024-01-30T01:33:51;13.02;;;6.55;;
48743;SDS011;34538;48.836;9.174;2024-01-30T01:36:18;11.77;;;6.70;;
48743;SDS011;34538;48.836;9.174;2024-01-30T01:38:45;11.68;;;6.20;;
48743;SDS011;34538;48.836;9.174;2024-01-30T01:41:12;13.13;;;6.60;;
48743;SDS011;34538;48.836;9.174;2024-01-30T01:43:38;12.55;;;6.32;;
48743;SDS011;34538;48.836;9.174;2024-01-30T01:46:06;12.32;;;6.15;;
48743;SDS011;34538;48.836;9.174;2024-01-30T01:48:34;15.02;;;6.97;;
48743;SDS011;34538;48.836;9.174;2024-01-30T01:51:02;12.57;;;6.90;;
48743;SDS011;34538;48.836;9.174;2024-01-30T01:53:30;11.98;;;6.55;;
48743;SDS011;34538;48.836;9.174;2024-01-30T01:55:57;13.18;;;7.03;;
48743;SDS011;34538;48.836;9.174;2024-01-30T01:58:24;10.02;;;6.28;;
48743;SDS011;34538;48.836;9.174;2024-01-30T02:00:55;8.87;;;4.83;;
48743;SDS011;34538;48.836;9.174;2024-01-30T02:03:23;12.75;;;7.07;;
48743;SDS011;34538;48.836;9.174;2024-01-30T02:05:50;12.40;;;7.03;;
48743;SDS011;34538;48.836;9.174;2024-01-30T02:08:19;11.48;;;6.38;;
48743;SDS011;34538;48.836;9.174;2024-01-30T02:10:46;13.45;;;7.22;;
48743;SDS011;34538;48.836;9.174;2024-01-30T02:13:13;11.73;;;6.82;;
48743;SDS011;34538;48.836;9.174;2024-01-30T02:15:40;12.45;;;7.10;;
48743;SDS011;34538;48.836;9.174;2024-01-30T02:18:06;15.32;;;7.07;;
48743;SDS011;34538;48.836;9.174;2024-01-30T02:20:34;14.23;;;7.07;;
48743;SDS011;34538;48.836;9.174;2024-01-30T02:23:03;13.88;;;7.43;;
48743;SDS011;34538;48.836;9.174;2024-01-30T02:25:31;13.32;;;7.20;;
48743;SDS011;34538;48.836;9.174;2024-01-30T02:27:59;12.55;;;7.22;;
48743;SDS011;34538;48.836;9.174;2024-01-30T02:30:26;14.15;;;7.10;;
48743;SDS011;34538;48.836;9.174;2024-01-30T02:32:53;12.00;;;7.15;;
48743;SDS011;34538;48.836;9.174;2024-01-30T02:35:20;15.32;;;7.70;;
48743;SDS011;34538;48.836;9.174;2024-01-30T02:37:47;15.05;;;7.18;;
48743;SDS011;34538;48.836;9.174;2024-01-30T02:40:15;12.05;;;7.05;;
48743;SDS011;34538;48.836;9.174;2024-01-30T02:42:42;13.55;;;7.93;;
48743;SDS011;34538;48.836;9.174;2024-01-30T02:45:10;12.48;;;6.97;;
48743;SDS011;34538;48.836;9.174;2024-01-30T02:47:38;12.55;;;6.70;;
48743;SDS011;34538;48.836;9.174;2024-01-30T02:50:05;13.75;;;7.68;;
48743;SDS011;34538;48.836;9.174;2024-01-30T02:52:32;15.23;;;7.40;;
48743;SDS011;34538;48.836;9.174;2024-01-30T02:54:59;14.20;;;7.32;;
48743;SDS011;34538;48.836;9.174;2024-01-30T02:57:28;13.93;;;7.55;;
48743;SDS011;34538;48.836;9.174;2024-01-30T02:59:55;14.43;;;7.72;;
48743;SDS011;34538;48.836;9.174;2024-01-30T03:02:22;12.20;;;6.80;;
48743;SDS011;34538;48.836;9.174;2024-01-30T03:04:48;14.18;;;7.80;;
48743;SDS011;34538;48.836;9.174;2024-01-30T03:07:15;11.13;;;7.30;;
48743;SDS011;34538;48.836;9.174;2024-01-30T03:09:42;14.25;;;7.97;;
48743;SDS011;34538;48.836;9.174;2024-01-30T03:12:09;15.10;;;7.30;;
48743;SDS011;34538;48.836;9.174;2024-01-30T03:14:37;12.32;;;7.22;;
48743;SDS011;34538;48.836;9.174;2024-01-30T03:17:04;11.98;;;6.80;;
48743;SDS011;34538;48.836;9.174;2024-01-30T03:19:31;14.10;;;7.35;;
48743;SDS011;34538;48.836;9.174;2024-01-30T03:21:58;12.55;;;7.03;;
48743;SDS011;34538;48.836;9.174;2024-01-30T03:24:25;11.38;;;6.90;;
48743;SDS011;34538;48.836;9.174;2024-01-30T03:26:52;12.70;;;6.97;;
48743;SDS011;34538;48.836;9.174;2024-01-30T03:29:19;12.75;;;7.35;;
48743;SDS011;34538;48.836;9.174;2024-01-30T03:31:47;13.50;;;7.57;;
48743;SDS011;34538;48.836;9.174;2024-01-30T03:34:14;12.60;;;6.85;;
48743;SDS011;34538;48.836;9.174;2024-01-30T03:36:41;12.35;;;7.45;;
48743;SDS011;34538;48.836;9.174;2024-01-30T03:39:08;11.38;;;7.22;;
48743;SDS011;34538;48.836;9.174;2024-01-30T03:41:34;11.18;;;6.95;;
48743;SDS011;34538;48.836;9.174;2024-01-30T03:44:01;13.00;;;6.93;;
48743;SDS011;34538;48.836;9.174;2024-01-30T03:46:28;10.32;;;6.78;;
48743;SDS011;34538;48.836;9.174;2024-01-30T03:48:56;12.55;;;7.20;;
48743;SDS011;34538;48.836;9.174;2024-01-30T03:51:23;13.00;;;6.50;;
48743;SDS011;34538;48.836;9.174;2024-01-30T03:53:50;11.60;;;6.95;;
48743;SDS011;34538;48.836;9.174;2024-01-30T03:56:17;12.98;;;7.10;;
48743;SDS011;34538;48.836;9.174;2024-01-30T03:58:44;12.77;;;6.88;;
48743;SDS011;34538;48.836;9.174;2024-01-30T04:01:12;13.30;;;7.03;;
48743;SDS011;34538;48.836;9.174;2024-01-30T04:03:39;10.38;;;6.78;;
48743;SDS011;34538;48.836;9.174;2024-01-30T04:06:08;12.65;;;7.25;;
48743;SDS011;34538;48.836;9.174;2024-01-30T04:08:34;10.82;;;6.97;;
48743;SDS011;34538;48.836;9.174;2024-01-30T04:11:03;12.55;;;7.55;;
48743;SDS011;34538;48.836;9.174;2024-01-30T04:13:31;11.52;;;6.57;;
48743;SDS011;34538;48.836;9.174;2024-01-30T04:15:58;11.10;;;6.68;;
48743;SDS011;34538;48.836;9.174;2024-01-30T04:18:26;11.90;;;7.25;;
48743;SDS011;34538;48.836;9.174;2024-01-30T04:20:53;13.65;;;7.00;;
48743;SDS011;34538;48.836;9.174;2024-01-30T04:23:21;13.50;;;7.80;;
48743;SDS011;34538;48.836;9.174;2024-01-30T04:25:48;10.52;;;6.68;;
48743;SDS011;34538;48.836;9.174;2024-01-30T04:28:15;11.13;;;6.65;;
48743;SDS011;34538;48.836;9.174;2024-01-30T04:30:42;18.40;;;7.25;;
48743;SDS011;34538;48.836;9.174;2024-01-30T04:33:09;12.57;;;7.15;;
48743;SDS011;34538;48.836;9.174;2024-01-30T04:35:36;10.40;;;6.93;;
48743;SDS011;34538;48.836;9.174;2024-01-30T04:38:03;12.38;;;7.43;;
48743;SDS011;34538;48.836;9.174;2024-01-30T04:40:31;11.48;;;6.85;;
48743;SDS011;34538;48.836;9.174;2024-01-30T04:42:58;12.85;;;7.57;;
48743;SDS011;34538;48.836;9.174;2024-01-30T04:45:25;11.93;;;6.85;;
48743;SDS011;34538;48.836;9.174;2024-01-30T04:47:52;10.88;;;6.93;;
48743;SDS011;34538;48.836;9.174;2024-01-30T04:50:19;11.95;;;6.65;;
48743;SDS011;34538;48.836;9.174;2024-01-30T04:52:46;15.57;;;8.40;;
48743;SDS011;34538;48.836;9.174;2024-01-30T04:55:12;11.38;;;7.15;;
48743;SDS011;34538;48.836;9.174;2024-01-30T04:57:40;12.07;;;6.97;;
48743;SDS011;34538;48.836;9.174;2024-01-30T05:00:08;12.70;;;7.22;;
48743;SDS011;34538;48.836;9.174;2024-01-30T05:02:35;12.32;;;6.90;;
48743;SDS011;34538;48.836;9.174;2024-01-30T05:05:02;13.25;;;7.38;;
48743;SDS011;34538;48.836;9.174;2024-01-30T05:07:29;12.88;;;8.55;;
48743;SDS011;34538;48.836;9.174;2024-01-30T05:09:56;14.32;;;7.20;;
48743;SDS011;34538;48.836;9.174;2024-01-30T05:12:23;12.68;;;6.85;;
48743;SDS011;34538;48.836;9.174;2024-01-30T05:14:51;14.98;;;7.65;;
48743;SDS011;34538;48.836;9.174;2024-01-30T05:17:18;11.32;;;7.40;;
48743;SDS011;34538;48.836;9.174;2024-01-30T05:19:45;14.80;;;7.43;;
48743;SDS011;34538;48.836;9.174;2024-01-30T05:22:11;11.30;;;7.05;;
48743;SDS011;34538;48.836;9.174;2024-01-30T05:24:40;13.73;;;7.53;;
48743;SDS011;34538;48.836;9.174;2024-01-30T05:27:07;11.88;;;7.75;;
48743;SDS011;34538;48.836;9.174;2024-01-30T05:29:34;11.82;;;7.30;;
48743;SDS011;34538;48.836;9.174;2024-01-30T05:32:02;14.15;;;7.22;;
48743;SDS011;34538;48.836;9.174;2024-01-30T05:34:30;15.13;;;8.18;;
48743;SDS011;34538;48.836;9.174;2024-01-30T05:36:57;11.88;;;7.47;;
48743;SDS011;34538;48.836;9.174;2024-01-30T05:39:24;14.50;;;7.32;;
48743;SDS011;34538;48.836;9.174;2024-01-30T05:41:51;14.95;;;7.82;;
48743;SDS011;34538;48.836;9.174;2024-01-30T05:44:17;11.90;;;7.47;;
48743;SDS011;34538;48.836;9.174;2024-01-30T05:46:44;13.50;;;7.32;;
48743;SDS011;34538;48.836;9.174;2024-01-30T05:49:13;12.57;;;7.45;;
48743;SDS011;34538;48.836;9.174;2024-01-30T05:51:40;14.90;;;8.68;;
48743;SDS011;34538;48.836;9.174;2024-01-30T05:54:07;15.18;;;7.60;;
48743;SDS011;34538;48.836;9.174;2024-01-30T05:56:33;11.88;;;7.50;;
48743;SDS011;34538;48.836;9.174;2024-01-30T05:59:00;16.00;;;8.70;;
48743;SDS011;34538;48.836;9.174;2024-01-30T06:01:28;15.05;;;9.52;;
48743;SDS011;34538;48.836;9.174;2024-01-30T06:03:54;18.55;;;10.85;;
48743;SDS011;34538;48.836;9.174;2024-01-30T06:06:23;20.67;;;10.77;;
48743;SDS011;34538;48.836;9.174;2024-01-30T06:08:50;20.02;;;10.60;;
48743;SDS011;34538;48.836;9.174;2024-01-30T06:11:16;21.38;;;11.60;;
48743;SDS011;34538;48.836;9.174;2024-01-30T06:13:43;20.92;;;11.52;;
48743;SDS011;34538;48.836;9.174;2024-01-30T06:16:09;36.22;;;19.65;;
48743;SDS011;34538;48.836;9.174;2024-01-30T06:18:37;20.17;;;11.35;;
48743;SDS011;34538;48.836;9.174;2024-01-30T06:21:04;16.30;;;9.95;;
48743;SDS011;34538;48.836;9.174;2024-01-30T06:23:32;20.73;;;11.45;;
48743;SDS011;34538;48.836;9.174;2024-01-30T06:25:59;18.55;;;11.98;;
48743;SDS011;34538;48.836;9.174;2024-01-30T06:28:26;19.38;;;11.00;;
48743;SDS011;34538;48.836;9.174;2024-01-30T06:30:53;20.95;;;11.77;;
48743;SDS011;34538;48.836;9.174;2024-01-30T06:33:20;19.38;;;10.98;;
48743;SDS011;34538;48.836;9.174;2024-01-30T06:35:46;17.73;;;9.57;;
48743;SDS011;34538;48.836;9.174;2024-01-30T06:38:13;13.40;;;8.18;;
48743;SDS011;34538;48.836;9.174;2024-01-30T06:40:42;16.63;;;9.35;;
48743;SDS011;34538;48.836;9.174;2024-01-30T06:43:09;13.20;;;8.18;;
48743;SDS011;34538;48.836;9.174;2024-01-30T06:45:36;12.75;;;8.48;;
48743;SDS011;34538;48.836;9.174;2024-01-30T06:48:03;13.38;;;7.50;;
48743;SDS011;34538;48.836;9.174;2024-01-30T06:50:30;13.68;;;7.07;;
48743;SDS011;34538;48.836;9.174;2024-01-30T06:52:57;11.63;;;7.15;;
48743;SDS011;34538;48.836;9.174;2024-01-30T06:55:23;13.10;;;7.07;;
48743;SDS011;34538;48.836;9.174;2024-01-30T06:57:52;14.23;;;7.82;;
48743;SDS011;34538;48.836;9.174;2024-01-30T07:00:19;12.27;;;7.35;;
48743;SDS011;34538;48.836;9.174;2024-01-30T07:02:46;11.90;;;6.72;;
48743;SDS011;34538;48.836;9.174;2024-01-30T07:05:13;14.45;;;7.82;;
48743;SDS011;34538;48.836;9.174;2024-01-30T07:07:40;14.80;;;7.68;;
48743;SDS011;34538;48.836;9.174;2024-01-30T07:10:07;14.63;;;8.40;;
48743;SDS011;34538;48.836;9.174;2024-01-30T07:12:34;12.85;;;7.95;;
48743;SDS011;34538;48.836;9.174;2024-01-30T07:15:03;19.70;;;9.38;;
48743;SDS011;34538;48.836;9.174;2024-01-30T07:17:33;18.92;;;9.43;;
48743;SDS011;34538;48.836;9.174;2024-01-30T07:19:59;26.00;;;13.82;;
48743;SDS011;34538;48.836;9.174;2024-01-30T07:22:28;20.80;;;10.68;;
48743;SDS011;34538;48.836;9.174;2024-01-30T07:24:56;17.67;;;10.48;;
48743;SDS011;34538;48.836;9.174;2024-01-30T07:27:23;21.40;;;9.88;;
48743;SDS011;34538;48.836;9.174;2024-01-30T07:29:51;15.93;;;9.70;;
48743;SDS011;34538;48.836;9.174;2024-01-30T07:32:19;15.57;;;8.23;;
48743;SDS011;34538;48.836;9.174;2024-01-30T07:34:46;14.73;;;8.80;;
48743;SDS011;34538;48.836;9.174;2024-01-30T07:37:12;13.48;;;7.68;;
48743;SDS011;34538;48.836;9.174;2024-01-30T07:39:41;15.15;;;8.23;;
48743;SDS011;34538;48.836;9.174;2024-01-30T07:42:08;14.63;;;8.05;;
48743;SDS011;34538;48.836;9.174;2024-01-30T07:44:35;12.88;;;7.50;;
48743;SDS011;34538;48.836;9.174;2024-01-30T07:47:02;14.68;;;8.52;;
48743;SDS011;34538;48.836;9.174;2024-01-30T07:49:30;15.25;;;8.35;;
48743;SDS011;34538;48.836;9.174;2024-01-30T07:51:57;13.85;;;8.07;;
48743;SDS011;34538;48.836;9.174;2024-01-30T07:54:25;16.13;;;8.82;;
48743;SDS011;34538;48.836;9.174;2024-01-30T07:56:51;13.80;;;8.65;;
48743;SDS011;34538;48.836;9.174;2024-01-30T07:59:19;13.00;;;7.82;;
48743;SDS011;34538;48.836;9.174;2024-01-30T08:01:50;12.43;;;7.90;;
48743;SDS011;34538;48.836;9.174;2024-01-30T08:04:16;15.38;;;8.07;;
48743;SDS011;34538;48.836;9.174;2024-01-30T08:06:45;14.60;;;8.18;;
48743;SDS011;34538;48.836;9.174;2024-01-30T08:09:12;12.52;;;7.78;;
48743;SDS011;34538;48.836;9.174;2024-01-30T08:11:38;16.35;;;7.85;;
48743;SDS011;34538;48.836;9.174;2024-01-30T08:14:05;12.60;;;7.65;;
48743;SDS011;34538;48.836;9.174;2024-01-30T08:16:32;13.70;;;8.05;;
48743;SDS011;34538;48.836;9.174;2024-01-30T08:18:58;12.98;;;7.88;;
48743;SDS011;34538;48.836;9.174;2024-01-30T08:21:26;12.40;;;7.50;;
48743;SDS011;34538;48.836;9.174;2024-01-30T08:23:54;14.35;;;7.68;;
48743;SDS011;34538;48.836;9.174;2024-01-30T08:26:21;13.82;;;8.07;;
48743;SDS011;34538;48.836;9.174;2024-01-30T08:28:47;13.30;;;7.10;;
48743;SDS011;34538;48.836;9.174;2024-01-30T08:31:15;13.30;;;7.10;;
48743;SDS011;34538;48.836;9.174;2024-01-30T08:33:42;13.48;;;7.20;;
48743;SDS011;34538;48.836;9.174;2024-01-30T08:36:09;13.48;;;7.20;;
48743;SDS011;34538;48.836;9.174;2024-01-30T08:38:35;13.13;;;7.65;;
48743;SDS011;34538;48.836;9.174;2024-01-30T08:41:03;11.10;;;6.68;;
48743;SDS011;34538;48.836;9.174;2024-01-30T08:43:30;10.57;;;6.72;;
48743;SDS011;34538;48.836;9.174;2024-01-30T08:45:58;11.05;;;6.10;;
48743;SDS011;34538;48.836;9.174;2024-01-30T08:48:25;11.75;;;6.78;;
48743;SDS011;34538;48.836;9.174;2024-01-30T08:50:52;11.57;;;6.55;;
48743;SDS011;34538;48.836;9.174;2024-01-30T08:53:19;11.35;;;6.93;;
48743;SDS011;34538;48.836;9.174;2024-01-30T08:55:46;13.95;;;6.63;;
48743;SDS011;34538;48.836;9.174;2024-01-30T08:58:15;12.88;;;6.95;;
48743;SDS011;34538;48.836;9.174;2024-01-30T09:00:43;9.43;;;5.60;;
48743;SDS011;34538;48.836;9.174;2024-01-30T09:03:10;11.07;;;6.22;;
48743;SDS011;34538;48.836;9.174;2024-01-30T09:05:37;9.13;;;5.47;;
48743;SDS011;34538;48.836;9.174;2024-01-30T09:08:04;13.90;;;7.15;;
48743;SDS011;34538;48.836;9.174;2024-01-30T09:10:30;12.00;;;6.68;;
48743;SDS011;34538;48.836;9.174;2024-01-30T09:12:57;9.45;;;6.05;;
48743;SDS011;34538;48.836;9.174;2024-01-30T09:15:25;10.85;;;6.38;;
48743;SDS011;34538;48.836;9.174;2024-01-30T09:17:52;11.73;;;6.15;;
48743;SDS011;34538;48.836;9.174;2024-01-30T09:20:19;10.77;;;5.43;;
48743;SDS011;34538;48.836;9.174;2024-01-30T09:22:47;10.63;;;6.53;;
48743;SDS011;34538;48.836;9.174;2024-01-30T09:25:14;11.55;;;6.07;;
48743;SDS011;34538;48.836;9.174;2024-01-30T09:27:41;10.00;;;6.45;;
48743;SDS011;34538;48.836;9.174;2024-01-30T09:30:08;9.85;;;6.55;;
48743;SDS011;34538;48.836;9.174;2024-01-30T09:32:37;13.27;;;6.80;;
48743;SDS011;34538;48.836;9.174;2024-01-30T09:35:05;12.93;;;6.65;;
48743;SDS011;34538;48.836;9.174;2024-01-30T09:37:33;12.50;;;6.47;;
48743;SDS011;34538;48.836;9.174;2024-01-30T09:40:00;11.68;;;6.05;;
48743;SDS011;34538;48.836;9.174;2024-01-30T09:42:28;11.85;;;6.97;;
48743;SDS011;34538;48.836;9.174;2024-01-30T09:44:59;10.50;;;6.40;;
48743;SDS011;34538;48.836;9.174;2024-01-30T09:47:28;13.88;;;6.53;;
48743;SDS011;34538;48.836;9.174;2024-01-30T09:49:58;12.60;;;6.40;;
48743;SDS011;34538;48.836;9.174;2024-01-30T09:52:25;10.13;;;6.45;;
48743;SDS011;34538;48.836;9.174;2024-01-30T09:54:52;9.45;;;5.85;;
48743;SDS011;34538;48.836;9.174;2024-01-30T09:57:19;11.82;;;5.85;;
48743;SDS011;34538;48.836;9.174;2024-01-30T09:59:47;10.88;;;6.22;;
48743;SDS011;34538;48.836;9.174;2024-01-30T10:02:14;10.98;;;6.28;;
48743;SDS011;34538;48.836;9.174;2024-01-30T10:04:41;9.57;;;5.88;;
48743;SDS011;34538;48.836;9.174;2024-01-30T10:07:09;10.20;;;6.82;;
48743;SDS011;34538;48.836;9.174;2024-01-30T10:09:37;11.68;;;6.22;;
48743;SDS011;34538;48.836;9.174;2024-01-30T10:12:05;9.65;;;6.55;;
48743;SDS011;34538;48.836;9.174;2024-01-30T10:14:32;11.45;;;6.18;;
48743;SDS011;34538;48.836;9.174;2024-01-30T10:17:00;11.07;;;6.53;;
48743;SDS011;34538;48.836;9.174;2024-01-30T10:19:27;12.05;;;7.15;;
48743;SDS011;34538;48.836;9.174;2024-01-30T10:21:54;10.95;;;6.15;;
48743;SDS011;34538;48.836;9.174;2024-01-30T10:24:25;13.38;;;6.68;;
48743;SDS011;34538;48.836;9.174;2024-01-30T10:26:53;13.25;;;6.72;;
48743;SDS011;34538;48.836;9.174;2024-01-30T10:29:20;11.80;;;6.82;;
48743;SDS011;34538;48.836;9.174;2024-01-30T10:31:56;13.20;;;6.90;;
48743;SDS011;34538;48.836;9.174;2024-01-30T10:34:24;13.85;;;6.60;;
48743;SDS011;34538;48.836;9.174;2024-01-30T10:36:51;10.98;;;6.57;;
48743;SDS011;34538;48.836;9.174;2024-01-30T10:39:29;11.45;;;6.72;;
48743;SDS011;34538;48.836;9.174;2024-01-30T10:41:58;11.73;;;6.40;;
48743;SDS011;34538;48.836;9.174;2024-01-30T10:44:30;11.40;;;6.28;;
48743;SDS011;34538;48.836;9.174;2024-01-30T10:47:03;12.52;;;6.82;;
48743;SDS011;34538;48.836;9.174;2024-01-30T10:49:35;11.00;;;6.90;;
48743;SDS011;34538;48.836;9.174;2024-01-30T10:52:02;16.00;;;7.57;;
48743;SDS011;34538;48.836;9.174;2024-01-30T10:54:31;11.00;;;6.60;;
48743;SDS011;34538;48.836;9.174;2024-01-30T10:56:59;14.88;;;7.00;;
48743;SDS011;34538;48.836;9.174;2024-01-30T10:59:28;11.07;;;6.45;;
48743;SDS011;34538;48.836;9.174;2024-01-30T11:01:56;13.25;;;7.22;;
48743;SDS011;34538;48.836;9.174;2024-01-30T11:04:24;13.45;;;7.10;;
48743;SDS011;34538;48.836;9.174;2024-01-30T11:06:51;16.10;;;6.70;;
48743;SDS011;34538;48.836;9.174;2024-01-30T11:09:19;14.98;;;6.80;;
48743;SDS011;34538;48.836;9.174;2024-01-30T11:11:50;13.32;;;7.80;;
48743;SDS011;34538;48.836;9.174;2024-01-30T11:14:22;10.80;;;5.90;;
48743;SDS011;34538;48.836;9.174;2024-01-30T11:16:50;11.57;;;6.82;;
48743;SDS011;34538;48.836;9.174;2024-01-30T11:19:22;11.13;;;6.43;;
48743;SDS011;34538;48.836;9.174;2024-01-30T11:21:50;12.63;;;6.13;;
48743;SDS011;34538;48.836;9.174;2024-01-30T11:24:19;8.82;;;6.15;;
48743;SDS011;34538;48.836;9.174;2024-01-30T11:26:47;12.68;;;6.10;;
48743;SDS011;34538;48.836;9.174;2024-01-30T11:29:16;12.20;;;7.10;;
48743;SDS011;34538;48.836;9.174;2024-01-30T11:31:51;12.55;;;6.82;;
48743;SDS011;34538;48.836;9.174;2024-01-30T11:34:18;11.55;;;6.28;;
48743;SDS011;34538;48.836;9.174;2024-01-30T11:36:46;12.20;;;6.47;;
48743;SDS011;34538;48.836;9.174;2024-01-30T11:39:20;11.77;;;6.78;;
48743;SDS011;34538;48.836;9.174;2024-01-30T11:41:47;12.40;;;6.38;;
48743;SDS011;34538;48.836;9.174;2024-01-30T11:44:19;12.10;;;6.37;;
48743;SDS011;34538;48.836;9.174;2024-01-30T11:46:46;11.95;;;6.55;;
48743;SDS011;34538;48.836;9.174;2024-01-30T11:49:14;12.50;;;6.43;;
48743;SDS011;34538;48.836;9.174;2024-01-30T11:51:41;13.65;;;7.03;;
48743;SDS011;34538;48.836;9.174;2024-01-30T11:54:08;13.88;;;6.88;;
48743;SDS011;34538;48.836;9.174;2024-01-30T11:56:36;11.35;;;6.28;;
48743;SDS011;34538;48.836;9.174;2024-01-30T11:59:03;12.75;;;6.35;;
48743;SDS011;34538;48.836;9.174;2024-01-30T12:01:31;13.32;;;6.28;;
48743;SDS011;34538;48.836;9.174;2024-01-30T12:03:58;11.40;;;6.38;;
48743;SDS011;34538;48.836;9.174;2024-01-30T12:06:25;12.93;;;6.60;;
48743;SDS011;34538;48.836;9.174;2024-01-30T12:08:56;13.85;;;6.63;;
48743;SDS011;34538;48.836;9.174;2024-01-30T12:13:51;15.48;;;7.07;;
48743;SDS011;34538;48.836;9.174;2024-01-30T12:16:19;13.65;;;7.28;;
48743;SDS011;34538;48.836;9.174;2024-01-30T12:18:48;16.73;;;8.05;;
48743;SDS011;34538;48.836;9.174;2024-01-30T12:21:16;15.27;;;6.88;;
48743;SDS011;34538;48.836;9.174;2024-01-30T12:23:42;11.27;;;6.85;;
48743;SDS011;34538;48.836;9.174;2024-01-30T12:26:10;12.55;;;6.57;;
48743;SDS011;34538;48.836;9.174;2024-01-30T12:28:37;13.73;;;6.90;;
48743;SDS011;34538;48.836;9.174;2024-01-30T12:31:14;11.98;;;6.50;;
48743;SDS011;34538;48.836;9.174;2024-01-30T12:33:40;14.32;;;7.15;;
48743;SDS011;34538;48.836;9.174;2024-01-30T12:36:09;12.05;;;6.60;;
48743;SDS011;34538;48.836;9.174;2024-01-30T12:38:37;12.18;;;6.85;;
48743;SDS011;34538;48.836;9.174;2024-01-30T12:41:06;13.00;;;6.70;;
48743;SDS011;34538;48.836;9.174;2024-01-30T12:43:34;11.77;;;6.88;;
48743;SDS011;34538;48.836;9.174;2024-01-30T12:46:00;10.07;;;6.75;;
48743;SDS011;34538;48.836;9.174;2024-01-30T12:48:28;16.40;;;7.45;;
48743;SDS011;34538;48.836;9.174;2024-01-30T12:50:56;16.38;;;7.07;;
48743;SDS011;34538;48.836;9.174;2024-01-30T12:53:24;12.70;;;7.30;;
48743;SDS011;34538;48.836;9.174;2024-01-30T12:55:51;18.17;;;7.22;;
48743;SDS011;34538;48.836;9.174;2024-01-30T12:58:19;11.35;;;7.18;;
48743;SDS011;34538;48.836;9.174;2024-01-30T13:00:46;10.60;;;6.53;;
48743;SDS011;34538;48.836;9.174;2024-01-30T13:03:13;12.82;;;7.03;;
48743;SDS011;34538;48.836;9.174;2024-01-30T13:05:40;14.25;;;6.97;;
48743;SDS011;34538;48.836;9.174;2024-01-30T13:08:07;13.52;;;6.47;;
48743;SDS011;34538;48.836;9.174;2024-01-30T13:10:35;14.32;;;7.05;;
48743;SDS011;34538;48.836;9.174;2024-01-30T13:13:02;12.77;;;7.40;;
48743;SDS011;34538;48.836;9.174;2024-01-30T13:15:30;14.18;;;7.18;;
48743;SDS011;34538;48.836;9.174;2024-01-30T13:18:00;14.38;;;6.50;;
48743;SDS011;34538;48.836;9.174;2024-01-30T13:20:28;10.85;;;6.75;;
48743;SDS011;34538;48.836;9.174;2024-01-30T13:22:58;10.13;;;6.22;;
48743;SDS011;34538;48.836;9.174;2024-01-30T13:25:29;13.00;;;6.95;;
48743;SDS011;34538;48.836;9.174;2024-01-30T13:28:00;12.70;;;6.80;;
48743;SDS011;34538;48.836;9.174;2024-01-30T13:30:30;10.98;;;6.35;;
48743;SDS011;34538;48.836;9.174;2024-01-30T13:33:00;10.35;;;5.95;;
48743;SDS011;34538;48.836;9.174;2024-01-30T13:35:28;11.73;;;7.35;;
48743;SDS011;34538;48.836;9.174;2024-01-30T13:37:55;11.30;;;6.65;;
48743;SDS011;34538;48.836;9.174;2024-01-30T13:40:22;12.95;;;7.38;;
48743;SDS011;34538;48.836;9.174;2024-01-30T13:42:49;12.70;;;7.20;;
48743;SDS011;34538;48.836;9.174;2024-01-30T13:45:17;13.95;;;6.38;;
48743;SDS011;34538;48.836;9.174;2024-01-30T13:47:44;13.48;;;7.20;;
48743;SDS011;34538;48.836;9.174;2024-01-30T13:50:11;10.30;;;6.35;;
48743;SDS011;34538;48.836;9.174;2024-01-30T13:52:40;11.82;;;6.72;;
48743;SDS011;34538;48.836;9.174;2024-01-30T13:55:07;10.35;;;6.15;;
48743;SDS011;34538;48.836;9.174;2024-01-30T13:57:34;12.98;;;6.95;;
48743;SDS011;34538;48.836;9.174;2024-01-30T14:00:01;12.63;;;6.35;;
48743;SDS011;34538;48.836;9.174;2024-01-30T14:02:39;11.85;;;7.13;;
48743;SDS011;34538;48.836;9.174;2024-01-30T14:05:06;11.20;;;6.47;;
48743;SDS011;34538;48.836;9.174;2024-01-30T14:07:33;10.45;;;6.70;;
48743;SDS011;34538;48.836;9.174;2024-01-30T14:10:01;12.25;;;7.10;;
48743;SDS011;34538;48.836;9.174;2024-01-30T14:12:28;12.18;;;6.38;;
48743;SDS011;34538;48.836;9.174;2024-01-30T14:14:55;11.63;;;7.32;;
48743;SDS011;34538;48.836;9.174;2024-01-30T14:17:22;13.60;;;8.02;;
48743;SDS011;34538;48.836;9.174;2024-01-30T14:19:50;11.52;;;6.82;;
48743;SDS011;34538;48.836;9.174;2024-01-30T14:22:18;15.00;;;7.82;;
48743;SDS011;34538;48.836;9.174;2024-01-30T14:24:44;15.82;;;7.88;;
48743;SDS011;34538;48.836;9.174;2024-01-30T14:27:12;13.18;;;7.03;;
48743;SDS011;34538;48.836;9.174;2024-01-30T14:29:39;13.25;;;8.25;;
48743;SDS011;34538;48.836;9.174;2024-01-30T14:32:07;21.73;;;8.63;;
48743;SDS011;34538;48.836;9.174;2024-01-30T14:34:34;13.23;;;7.82;;
48743;SDS011;34538;48.836;9.174;2024-01-30T14:37:02;14.93;;;7.88;;